Time;durP1;ratioP1;P1;durP2;ratioP2;P2;SDS_P1;SDS_P2;PMS_P1;PMS_P2;Temp;Humidity;BMP_temperature;BMP_pressure;BME280_temperature;BME280_humidity;BME280_pressure;Samples;Min_cycle;Max_cycle;Signal;HPM_P1;HPM_P2
2020/12/15 00:00:34;;;;;;;10.65;9.13;;;;;;;7.55;71.24;98344.75;6105175;23;20206;-89
2020/12/15 00:03:02;;;;;;;13.82;11.38;;;;;;;7.47;71.72;98341.75;6129881;23;20549;-90
2020/12/15 00:05:29;;;;;;;14.90;11.85;;;;;;;7.60;71.49;98339.97;6104925;23;20567;-89
2020/12/15 00:07:55;;;;;;;13.52;11.00;;;;;;;7.54;71.84;98335.03;6111411;23;20162;-88
2020/12/15 00:10:22;;;;;;;16.80;11.57;;;;;;;7.58;71.74;98339.22;6131016;23;20209;-88
2020/12/15 00:12:48;;;;;;;14.50;10.48;;;;;;;7.62;71.70;98340.72;6106016;23;20206;-88
2020/12/15 00:15:15;;;;;;;15.70;11.23;;;;;;;7.72;71.58;98350.72;6106252;23;20257;-88
2020/12/15 00:17:42;;;;;;;13.77;10.35;;;;;;;7.88;71.29;98353.22;6117972;23;20241;-91
2020/12/15 00:20:10;;;;;;;16.83;12.15;;;;;;;7.95;71.58;98351.84;6157213;23;20146;-93
2020/12/15 00:22:36;;;;;;;12.98;10.23;;;;;;;8.13;70.63;98348.81;6154113;23;20200;-91
2020/12/15 00:25:04;;;;;;;11.30;8.77;;;;;;;8.34;69.75;98351.84;6127149;23;20221;-89
2020/12/15 00:27:31;;;;;;;5.88;5.10;;;;;;;8.64;67.62;98342.56;6126082;23;20209;-89
2020/12/15 00:30:03;;;;;;;5.03;4.28;;;;;;;8.83;67.55;98344.78;6150882;23;20210;-87
2020/12/15 00:32:29;;;;;;;5.80;3.97;;;;;;;9.00;67.10;98347.97;6092546;23;20166;-88
2020/12/15 00:34:55;;;;;;;5.65;4.60;;;;;;;9.06;67.17;98346.69;6048349;23;20193;-88
2020/12/15 00:37:24;;;;;;;6.20;4.97;;;;;;;9.03;67.20;98349.56;6132025;23;20206;-88
2020/12/15 00:39:50;;;;;;;6.20;4.57;;;;;;;9.12;66.85;98346.25;6114249;23;20210;-88
2020/12/15 00:42:20;;;;;;;4.80;4.30;;;;;;;8.95;67.59;98350.13;6139156;23;20226;-88
2020/12/15 00:44:50;;;;;;;5.07;4.40;;;;;;;8.93;68.97;98352.03;6112718;23;20241;-88
2020/12/15 00:47:19;;;;;;;6.43;4.72;;;;;;;8.80;70.09;98355.72;6135458;23;20170;-89
2020/12/15 00:49:47;;;;;;;5.90;5.10;;;;;;;8.96;70.93;98356.34;6113342;23;20185;-88
2020/12/15 00:52:14;;;;;;;5.97;5.20;;;;;;;9.03;70.45;98354.94;6111221;23;20240;-87
2020/12/15 00:54:41;;;;;;;5.35;4.45;;;;;;;8.85;72.79;98358.91;6079132;23;20215;-87
2020/12/15 00:57:13;;;;;;;4.95;4.25;;;;;;;9.01;72.30;98360.41;6044909;23;20290;-88
2020/12/15 00:59:44;;;;;;;6.53;5.78;;;;;;;8.99;72.92;98373.06;6089159;23;20216;-87
2020/12/15 01:02:16;;;;;;;5.72;4.90;;;;;;;8.83;74.57;98376.94;6112268;23;20163;-87
2020/12/15 01:04:43;;;;;;;7.13;5.32;;;;;;;8.89;74.50;98379.19;6118119;23;20204;-87
2020/12/15 01:14:23;;;;;;;6.68;5.65;;;;;;;8.43;77.85;98378.84;6206879;23;20217;-88
2020/12/15 01:16:54;;;;;;;8.57;6.10;;;;;;;8.43;77.95;98380.69;6158285;23;20201;-88
2020/12/15 01:19:21;;;;;;;6.15;5.55;;;;;;;8.39;78.16;98376.50;6142399;23;20201;-88
2020/12/15 01:21:49;;;;;;;7.07;5.60;;;;;;;8.43;78.52;98375.34;6172746;23;20169;-87
2020/12/15 01:24:21;;;;;;;6.30;5.70;;;;;;;8.32;79.32;98368.03;6168963;23;20209;-87
2020/12/15 01:27:11;;;;;;;7.40;6.32;;;;;;;8.36;79.58;98364.16;6167281;23;20201;-86
2020/12/15 01:29:50;;;;;;;8.60;6.43;;;;;;;8.35;80.22;98362.44;6181631;23;20204;-89
2020/12/15 01:32:20;;;;;;;7.20;6.38;;;;;;;8.41;80.41;98361.16;6158000;23;20158;-89
2020/12/15 01:34:48;;;;;;;6.75;6.05;;;;;;;8.34;81.00;98362.56;6161048;23;20186;-88
2020/12/15 01:37:15;;;;;;;8.80;6.65;;;;;;;8.24;81.48;98372.19;6116136;23;20196;-87
2020/12/15 01:39:43;;;;;;;14.43;6.80;;;;;;;8.22;81.64;98364.25;6153751;23;20209;-87
2020/12/15 01:42:20;;;;;;;7.65;6.50;;;;;;;8.23;81.97;98362.44;6160327;23;20189;-87
2020/12/15 01:44:53;;;;;;;7.25;6.55;;;;;;;8.01;83.59;98365.69;6139841;23;20209;-88
2020/12/15 01:47:20;;;;;;;7.05;6.35;;;;;;;7.94;84.08;98358.16;6180677;23;20173;-88
2020/12/15 01:49:48;;;;;;;7.43;6.68;;;;;;;7.89;85.39;98368.31;6157974;23;20221;-90
2020/12/15 01:52:23;;;;;;;10.27;7.18;;;;;;;8.14;83.72;98360.34;6162799;23;20192;-87
2020/12/15 01:57:59;;;;;;;19.95;13.75;;;;;;;7.97;86.34;98357.97;6140122;23;20222;-86
2020/12/15 02:00:32;;;;;;;14.60;9.20;;;;;;;7.93;86.44;98361.81;6182163;23;20261;-89
2020/12/15 02:03:17;;;;;;;10.10;8.45;;;;;;;7.94;86.39;98347.47;6156275;23;20201;-89
2020/12/15 02:06:10;;;;;;;8.23;7.40;;;;;;;7.87;86.64;98354.19;6184901;23;20201;-89
2020/12/15 02:08:50;;;;;;;8.98;7.57;;;;;;;7.75;87.16;98347.84;6153669;23;20200;-88
2020/12/15 02:11:17;;;;;;;9.25;7.35;;;;;;;7.75;87.37;98341.63;6151672;23;20149;-89
2020/12/15 02:13:45;;;;;;;9.02;8.10;;;;;;;7.81;87.42;98346.56;6183095;23;20205;-88
2020/12/15 02:16:15;;;;;;;10.88;8.15;;;;;;;7.79;87.61;98337.78;6179958;23;20204;-88
2020/12/15 02:18:47;;;;;;;11.25;7.97;;;;;;;7.74;87.58;98338.09;6154251;23;20213;-88
2020/12/15 02:21:16;;;;;;;10.20;8.27;;;;;;;7.89;87.74;98346.91;6155512;23;20300;-88
2020/12/15 02:24:01;;;;;;;10.57;8.50;;;;;;;7.90;87.08;98340.63;6145027;23;20209;-89
2020/12/15 02:26:36;;;;;;;15.15;10.18;;;;;;;7.87;87.61;98335.44;6158096;23;20184;-90
2020/12/15 02:29:06;;;;;;;10.15;8.30;;;;;;;8.11;85.87;98344.50;6158600;23;20153;-89
2020/12/15 02:31:33;;;;;;;12.07;8.70;;;;;;;8.04;85.96;98341.38;6136544;23;20201;-89
2020/12/15 02:34:03;;;;;;;10.52;8.27;;;;;;;7.94;86.49;98326.03;6181622;23;20308;-89
2020/12/15 02:37:18;;;;;;;10.93;8.18;;;;;;;7.85;87.56;98332.03;6180730;23;20224;-89
2020/12/15 02:40:05;;;;;;;10.60;8.30;;;;;;;8.06;86.83;98330.56;6178651;23;20197;-89
2020/12/15 02:43:10;;;;;;;10.02;8.30;;;;;;;8.01;86.67;98321.97;6173961;23;20395;-89
2020/12/15 02:45:38;;;;;;;11.15;8.43;;;;;;;7.85;87.57;98332.03;6180569;23;20239;-89
2020/12/15 02:48:10;;;;;;;10.85;7.65;;;;;;;8.15;85.34;98330.78;6178253;23;20223;-89
2020/12/15 02:50:38;;;;;;;12.40;7.82;;;;;;;7.85;86.68;98321.31;6153651;23;20213;-89
2020/12/15 02:53:19;;;;;;;12.85;8.30;;;;;;;8.01;86.70;98319.31;6162856;23;20217;-88
2020/12/15 02:55:46;;;;;;;9.65;7.07;;;;;;;7.90;87.77;98313.84;6139846;23;20170;-88
2020/12/15 02:58:19;;;;;;;10.35;8.70;;;;;;;8.01;86.94;98308.59;6181545;23;20236;-89
2020/12/15 03:04:41;;;;;;;7.38;6.68;;;;;;;7.95;87.29;98306.34;6150743;23;20208;-88
2020/12/15 03:08:26;;;;;;;;;;;;;;;;;;;;;
2020/12/15 03:11:32;;;;;;;7.25;6.55;;;;;;;8.07;86.36;98321.56;6213258;23;20206;-88
2020/12/15 03:14:06;;;;;;;8.10;6.90;;;;;;;7.76;88.18;98312.09;6189625;23;20196;-88
2020/12/15 03:16:33;;;;;;;9.20;7.32;;;;;;;7.86;88.65;98317.69;6197687;23;20227;-88
2020/12/15 03:19:00;;;;;;;8.45;7.03;;;;;;;8.13;87.10;98318.47;6178534;23;20194;-89
2020/12/15 03:21:28;;;;;;;7.22;6.53;;;;;;;7.95;87.61;98319.72;6204037;23;20197;-88
2020/12/15 03:23:57;;;;;;;9.65;7.03;;;;;;;8.07;87.91;98318.91;6189441;23;20219;-88
2020/12/15 03:26:26;;;;;;;12.63;7.65;;;;;;;7.89;88.77;98318.34;6166682;22;20168;-89
2020/12/15 03:28:52;;;;;;;10.50;8.00;;;;;;;7.78;89.58;98309.31;6210708;23;20168;-88
2020/12/15 03:31:19;;;;;;;10.15;8.38;;;;;;;7.72;89.75;98304.38;6207988;23;20200;-88
2020/12/15 03:33:48;;;;;;;10.50;7.68;;;;;;;7.68;90.21;98313.56;6156388;23;20201;-89
2020/12/15 03:36:15;;;;;;;9.30;8.13;;;;;;;7.67;90.82;98311.84;6162047;23;20267;-88
2020/12/15 03:38:45;;;;;;;10.40;8.65;;;;;;;7.69;91.40;98308.13;6189783;23;20201;-88
2020/12/15 03:41:13;;;;;;;12.07;9.43;;;;;;;7.68;91.43;98303.72;6163032;23;20169;-88
2020/12/15 03:43:53;;;;;;;12.68;9.32;;;;;;;7.75;91.64;98304.16;6183716;23;20181;-88
2020/12/15 03:46:52;;;;;;;20.35;14.30;;;;;;;7.73;91.78;98312.28;6180065;23;20247;-88
2020/12/15 03:49:22;;;;;;;21.52;15.40;;;;;;;7.92;91.67;98304.72;6165592;23;20259;-89
2020/12/15 03:51:56;;;;;;;23.20;17.45;;;;;;;7.89;91.71;98304.06;6176722;23;20235;-88
2020/12/15 03:54:28;;;;;;;25.08;17.05;;;;;;;7.88;92.25;98313.94;6197272;23;20222;-88
2020/12/15 03:57:13;;;;;;;25.17;17.30;;;;;;;7.87;92.16;98308.69;6199888;23;20207;-88
2020/12/15 03:59:53;;;;;;;15.90;11.90;;;;;;;7.88;92.42;98307.72;6169863;23;20347;-88
2020/12/15 04:02:23;;;;;;;15.00;11.65;;;;;;;7.90;92.61;98305.81;6190574;23;20175;-88
2020/12/15 04:04:50;;;;;;;12.55;10.13;;;;;;;7.89;93.02;98306.75;6170407;23;20192;-86
2020/12/15 04:07:18;;;;;;;13.25;10.48;;;;;;;7.85;92.45;98305.28;6165500;23;20204;-88
2020/12/15 04:10:41;;;;;;;10.80;9.05;;;;;;;7.83;92.65;98304.50;6031008;23;20731;-88
2020/12/15 04:13:08;;;;;;;12.02;9.80;;;;;;;7.84;92.75;98298.22;6166011;23;20215;-88
2020/12/15 04:28:19;;;;;;;12.77;10.30;;;;;;;7.88;93.37;98294.34;6000182;23;20212;-87
2020/12/15 04:30:50;;;;;;;12.30;10.30;;;;;;;7.90;93.43;98303.16;6054670;23;20215;-86
2020/12/15 04:33:19;;;;;;;12.65;9.82;;;;;;;7.92;93.57;98306.56;6174338;23;20251;-86
2020/12/15 04:35:50;;;;;;;13.85;10.65;;;;;;;7.93;93.61;98297.56;6163900;23;20212;-86
2020/12/15 04:42:45;;;;;;;13.27;10.32;;;;;;;7.94;93.50;98289.44;6079383;23;20167;-86
2020/12/15 04:45:40;;;;;;;16.98;11.50;;;;;;;8.09;92.40;98287.50;6097129;23;20565;-86
2020/12/15 04:48:09;;;;;;;16.85;11.85;;;;;;;8.12;92.79;98298.03;6173308;23;20169;-87
2020/12/15 04:54:59;;;;;;;15.77;11.95;;;;;;;8.15;93.17;98281.72;6176472;23;20236;-85
2020/12/15 04:58:22;;;;;;;17.20;11.77;;;;;;;8.12;93.17;98293.53;6151361;23;20206;-87
2020/12/15 05:00:57;;;;;;;13.95;10.55;;;;;;;8.13;93.65;98295.25;6159530;23;20161;-86
2020/12/15 05:14:20;;;;;;;19.48;14.02;;;;;;;8.38;91.31;98289.06;6202553;23;20242;-86
2020/12/15 05:17:36;;;;;;;24.30;17.80;;;;;;;8.42;91.90;98295.94;6168379;23;20477;-86
2020/12/15 05:20:29;;;;;;;26.23;17.83;;;;;;;8.52;90.19;98292.50;6163198;23;20153;-87
2020/12/15 05:23:09;;;;;;;26.15;17.60;;;;;;;8.46;91.34;98292.06;6168607;23;20250;-86
2020/12/15 05:26:20;;;;;;;23.33;15.75;;;;;;;8.70;90.38;98293.00;6197052;23;20179;-86
2020/12/15 05:28:47;;;;;;;26.20;15.63;;;;;;;8.73;87.62;98299.00;6214107;23;20692;-86
2020/12/15 05:31:15;;;;;;;27.02;15.90;;;;;;;8.54;89.86;98293.25;6190791;23;20216;-86
2020/12/15 05:34:03;;;;;;;24.75;16.02;;;;;;;8.52;90.08;98294.31;6198761;23;20258;-86
2020/12/15 05:36:50;;;;;;;23.50;15.38;;;;;;;8.58;90.74;98299.22;6201085;23;20402;-86
2020/12/15 05:39:59;;;;;;;26.27;16.98;;;;;;;8.65;89.85;98296.03;6137378;23;20227;-86
2020/12/15 05:42:31;;;;;;;42.25;23.45;;;;;;;8.48;90.72;98291.00;6167606;23;20296;-87
2020/12/15 05:44:59;;;;;;;39.80;23.42;;;;;;;8.45;90.86;98295.72;6149895;23;20240;-88
2020/12/15 05:47:26;;;;;;;39.58;23.00;;;;;;;8.39;92.01;98290.78;6190344;23;20416;-87
2020/12/15 05:54:15;;;;;;;47.03;25.25;;;;;;;8.42;92.52;98299.44;6205017;23;20269;-87
2020/12/15 05:56:59;;;;;;;55.80;28.30;;;;;;;8.61;91.78;98293.69;6179864;23;20228;-87
2020/12/15 05:59:37;;;;;;;43.67;24.63;;;;;;;8.66;90.69;98302.22;6099584;23;20145;-87
2020/12/15 06:05:48;;;;;;;38.20;21.52;;;;;;;8.44;92.04;98300.22;6204599;23;20181;-88
2020/12/15 06:08:15;;;;;;;33.70;21.33;;;;;;;8.41;92.71;98299.56;6175077;23;20174;-88
2020/12/15 06:10:44;;;;;;;33.08;19.05;;;;;;;8.42;92.79;98295.94;6153908;23;20164;-88
2020/12/15 06:13:47;;;;;;;30.27;19.95;;;;;;;8.42;93.25;98295.94;6148051;23;20213;-88
2020/12/15 06:23:31;;;;;;;18.73;14.90;;;;;;;8.51;92.54;98279.19;6185331;23;20291;-89
2020/12/15 06:25:57;;;;;;;18.50;13.85;;;;;;;8.49;92.68;98275.78;6141961;23;20591;-88
2020/12/15 06:28:32;;;;;;;16.40;13.85;;;;;;;8.44;92.86;98278.78;6134684;23;20212;-89
2020/12/15 06:30:59;;;;;;;17.42;13.73;;;;;;;8.40;93.09;98274.59;6137305;23;20201;-88
2020/12/15 06:33:35;;;;;;;12.25;10.95;;;;;;;8.39;93.06;98269.34;6138174;23;20201;-89
2020/12/15 06:36:02;;;;;;;13.30;11.32;;;;;;;8.37;93.25;98279.31;6139407;23;20207;-88
2020/12/15 06:38:28;;;;;;;18.75;12.75;;;;;;;8.37;93.58;98274.81;6156765;23;20159;-89
2020/12/15 06:40:55;;;;;;;13.85;10.55;;;;;;;8.46;93.73;98278.66;6163355;23;20161;-90
2020/12/15 06:44:13;;;;;;;19.38;12.75;;;;;;;8.49;93.79;98276.63;6158751;23;20220;-88
2020/12/15 06:46:41;;;;;;;14.55;12.50;;;;;;;8.53;93.47;98277.25;6103858;23;20651;-87
2020/12/15 06:49:10;;;;;;;16.83;13.50;;;;;;;8.59;93.60;98274.16;6173046;23;20243;-88
2020/12/15 06:52:27;;;;;;;17.90;12.35;;;;;;;8.54;93.93;98273.66;6129074;23;20244;-87
2020/12/15 06:54:57;;;;;;;16.52;13.07;;;;;;;8.65;91.96;98279.06;6132899;23;20600;-87
2020/12/15 06:57:41;;;;;;;15.88;11.88;;;;;;;8.51;92.22;98271.16;6136028;23;20209;-88
2020/12/15 07:00:10;;;;;;;18.23;13.77;;;;;;;8.46;92.79;98270.63;6158731;23;20757;-88
2020/12/15 07:02:41;;;;;;;17.58;13.48;;;;;;;8.41;92.96;98272.75;6133406;23;20205;-87
2020/12/15 07:05:18;;;;;;;16.95;12.57;;;;;;;8.42;93.19;98278.03;6163084;23;20216;-88
2020/12/15 07:07:50;;;;;;;18.63;13.95;;;;;;;8.46;93.64;98289.38;6137821;23;20212;-88
2020/12/15 07:10:19;;;;;;;22.80;14.05;;;;;;;8.51;93.82;98290.78;6096915;22;20206;-88
2020/12/15 07:12:47;;;;;;;17.95;14.85;;;;;;;8.57;94.10;98286.81;6161154;23;20204;-88
2020/12/15 07:19:44;;;;;;;14.00;10.82;;;;;;;8.77;94.04;98296.97;6098805;23;20187;-88
2020/12/15 07:25:34;;;;;;;14.18;12.68;;;;;;;8.94;93.72;98293.94;6216369;22;20623;-87
2020/12/15 07:28:03;;;;;;;12.73;10.13;;;;;;;9.01;93.49;98301.41;6189943;23;20200;-87
2020/12/15 07:30:37;;;;;;;12.10;9.50;;;;;;;9.11;93.71;98309.63;6171794;23;20614;-88
2020/12/15 07:36:51;;;;;;;9.05;6.35;;;;;;;9.26;92.51;98309.38;6174987;23;20212;-87
2020/12/15 07:46:47;;;;;;;7.05;6.10;;;;;;;9.43;91.45;98308.13;6133045;23;20210;-88
2020/12/15 07:49:16;;;;;;;8.10;5.10;;;;;;;9.50;91.19;98314.78;6188762;23;20204;-88
2020/12/15 07:52:09;;;;;;;7.07;5.72;;;;;;;9.52;90.94;98319.06;6191371;23;20208;-88
2020/12/15 07:54:36;;;;;;;8.15;5.40;;;;;;;9.52;90.90;98318.22;6001120;23;20232;-88
2020/12/15 08:01:36;;;;;;;7.32;5.18;;;;;;;9.65;90.57;98325.22;6083513;23;20267;-88
2020/12/15 08:04:07;;;;;;;6.25;5.53;;;;;;;9.67;89.44;98323.31;6161902;23;20188;-88
2020/12/15 08:06:36;;;;;;;9.70;6.05;;;;;;;9.72;89.86;98321.13;6120659;23;20211;-89
2020/12/15 08:09:04;;;;;;;7.82;6.15;;;;;;;9.81;89.70;98330.28;6181859;23;20212;-88
2020/12/15 08:11:31;;;;;;;14.32;6.50;;;;;;;9.77;88.24;98329.66;6162360;23;20394;-87
2020/12/15 08:15:08;;;;;;;8.60;5.68;;;;;;;9.80;88.15;98326.78;6147290;23;20193;-88
2020/12/15 08:22:02;;;;;;;6.80;5.72;;;;;;;10.12;86.30;98337.78;6084397;23;20201;-86
2020/12/15 08:24:29;;;;;;;6.82;5.78;;;;;;;10.04;86.91;98335.72;6058746;23;20205;-88
2020/12/15 08:27:10;;;;;;;12.45;7.43;;;;;;;10.21;85.53;98345.16;6183063;23;20208;-87
2020/12/15 08:29:38;;;;;;;6.55;3.95;;;;;;;10.44;83.04;98346.91;6176485;23;20268;-87
2020/12/15 08:32:05;;;;;;;4.70;4.18;;;;;;;10.65;80.84;98339.88;6201933;23;20180;-87
2020/12/15 08:34:34;;;;;;;4.30;3.60;;;;;;;10.56;81.75;98346.84;6204307;23;20252;-89
2020/12/15 08:37:05;;;;;;;3.47;3.17;;;;;;;10.61;81.21;98350.00;6195313;23;20212;-89
2020/12/15 08:39:36;;;;;;;4.60;3.85;;;;;;;10.73;80.87;98348.22;6205634;23;20228;-89
2020/12/15 08:45:43;;;;;;;5.50;3.40;;;;;;;10.76;79.97;98354.19;6234630;23;20219;-89
2020/12/15 08:48:15;;;;;;;3.83;3.22;;;;;;;10.95;79.49;98358.97;6204605;23;20272;-89
2020/12/15 08:50:42;;;;;;;5.65;3.70;;;;;;;10.88;79.27;98349.69;6203283;23;20244;-88
2020/12/15 08:53:16;;;;;;;5.53;3.25;;;;;;;10.86;79.89;98343.56;6196876;23;20185;-87
2020/12/15 08:55:47;;;;;;;6.22;4.78;;;;;;;11.01;78.83;98358.50;6174701;23;20644;-87
2020/12/15 08:58:14;;;;;;;6.47;4.05;;;;;;;10.92;79.46;98360.06;6168779;23;20263;-88
2020/12/15 09:00:46;;;;;;;5.25;3.60;;;;;;;11.03;79.28;98361.91;6193860;22;20216;-88
2020/12/15 09:03:17;;;;;;;4.90;3.40;;;;;;;10.98;79.65;98364.13;6167776;23;20235;-88
2020/12/15 09:05:51;;;;;;;7.18;4.20;;;;;;;11.17;78.22;98361.69;6170342;23;20540;-87
2020/12/15 09:08:19;;;;;;;3.90;3.50;;;;;;;11.19;78.61;98362.41;6178314;23;20157;-89
2020/12/15 09:10:46;;;;;;;4.75;3.63;;;;;;;11.08;78.83;98359.72;6197239;23;20168;-86
2020/12/15 09:13:13;;;;;;;8.82;8.02;;;;;;;11.11;78.84;98370.25;6165396;23;20688;-87
2020/12/15 09:15:54;;;;;;;8.32;3.90;;;;;;;11.15;78.71;98369.00;6165155;23;20204;-87
2020/12/15 09:18:34;;;;;;;6.45;4.22;;;;;;;11.31;77.61;98364.97;6183799;23;20224;-87
2020/12/15 09:21:09;;;;;;;9.05;3.17;;;;;;;11.37;77.72;98375.22;6178463;23;20204;-87
2020/12/15 09:23:39;;;;;;;5.20;4.25;;;;;;;11.36;77.75;98378.91;6173169;23;20322;-87
2020/12/15 09:26:25;;;;;;;5.15;4.45;;;;;;;11.40;77.90;98371.44;6200175;23;20165;-87
2020/12/15 09:28:51;;;;;;;7.68;4.35;;;;;;;11.46;78.05;98376.31;6174776;23;20165;-87
2020/12/15 09:31:25;;;;;;;10.23;3.72;;;;;;;11.45;77.86;98385.38;6196305;23;20204;-87
2020/12/15 09:33:58;;;;;;;6.32;4.32;;;;;;;11.46;78.20;98379.03;6168781;23;20208;-87
2020/12/15 09:36:25;;;;;;;5.57;3.85;;;;;;;11.29;78.22;98384.91;6180272;23;20360;-87
2020/12/15 09:38:52;;;;;;;6.35;4.80;;;;;;;11.27;78.80;98381.47;6180006;23;20207;-88
2020/12/15 09:41:19;;;;;;;5.45;4.15;;;;;;;11.41;78.27;98387.47;6200019;23;20227;-87
2020/12/15 09:43:46;;;;;;;6.05;4.90;;;;;;;11.45;78.32;98380.00;6205576;23;20207;-88
2020/12/15 09:46:13;;;;;;;12.13;5.50;;;;;;;11.45;79.14;98390.78;6186218;23;20197;-88
2020/12/15 09:48:44;;;;;;;6.55;5.22;;;;;;;11.34;80.97;98393.47;6162621;23;20283;-88
2020/12/15 09:51:30;;;;;;;5.55;4.78;;;;;;;11.33;81.71;98381.84;6120826;23;20257;-86
2020/12/15 09:53:56;;;;;;;6.07;4.70;;;;;;;11.48;81.18;98386.00;6125663;23;20312;-87
2020/12/15 09:56:30;;;;;;;6.38;4.32;;;;;;;11.68;78.92;98387.94;6202233;23;20189;-87
2020/12/15 09:58:59;;;;;;;7.80;6.10;;;;;;;11.67;79.31;98388.94;6176612;23;20152;-89
2020/12/15 10:01:54;;;;;;;4.18;3.53;;;;;;;11.28;81.60;98397.50;6121373;23;20210;-88
2020/12/15 10:04:25;;;;;;;5.65;4.47;;;;;;;11.38;81.61;98394.94;6019720;23;20211;-89
2020/12/15 10:07:01;;;;;;;5.18;4.10;;;;;;;11.50;81.41;98400.19;6163403;23;20204;-88
2020/12/15 10:09:31;;;;;;;5.40;4.30;;;;;;;11.67;80.36;98402.41;6159592;23;20283;-88
2020/12/15 10:12:02;;;;;;;6.72;4.45;;;;;;;11.32;81.54;98406.19;6116619;23;20212;-89
2020/12/15 10:14:38;;;;;;;5.80;4.40;;;;;;;11.42;81.64;98407.19;6143871;23;20212;-88
2020/12/15 10:17:10;;;;;;;5.20;3.80;;;;;;;11.45;81.21;98406.94;6152339;23;20168;-88
2020/12/15 10:19:43;;;;;;;6.28;4.65;;;;;;;11.48;81.28;98403.97;6153344;23;20219;-88
2020/12/15 10:22:15;;;;;;;6.07;4.00;;;;;;;11.39;81.41;98402.91;6169465;23;20661;-88
2020/12/15 10:24:44;;;;;;;4.68;3.80;;;;;;;11.31;82.37;98404.50;6160952;23;20208;-88
2020/12/15 10:27:11;;;;;;;5.88;5.07;;;;;;;11.32;82.41;98411.56;6164537;23;20209;-88
2020/12/15 10:29:45;;;;;;;4.60;4.20;;;;;;;11.44;81.57;98413.28;6165303;23;20204;-89
2020/12/15 10:32:12;;;;;;;5.60;4.43;;;;;;;11.36;82.69;98413.06;6197077;23;20160;-91
2020/12/15 10:34:38;;;;;;;4.75;4.13;;;;;;;11.33;82.55;98413.28;6175773;23;20199;-91
2020/12/15 10:37:05;;;;;;;5.65;4.60;;;;;;;11.49;82.17;98408.41;6171280;23;20214;-89
2020/12/15 10:39:44;;;;;;;4.45;3.85;;;;;;;11.57;82.43;98406.78;6085779;23;20206;-88
2020/12/15 10:43:16;;;;;;;5.40;4.43;;;;;;;11.56;82.98;98396.16;6051300;23;20210;-89
2020/12/15 10:45:58;;;;;;;5.10;4.60;;;;;;;11.49;83.98;98409.25;6086831;23;20276;-89
2020/12/15 10:48:30;;;;;;;5.22;4.22;;;;;;;11.51;83.18;98409.13;6185130;22;20231;-89
2020/12/15 10:51:31;;;;;;;4.93;4.22;;;;;;;11.61;82.71;98397.50;6041620;23;20282;-89
2020/12/15 10:54:14;;;;;;;6.28;4.38;;;;;;;11.57;82.17;98401.38;6134187;22;20200;-88
2020/12/15 10:56:50;;;;;;;8.15;5.80;;;;;;;11.58;83.13;98396.88;6164338;23;20240;-88
2020/12/15 10:59:27;;;;;;;5.20;4.03;;;;;;;11.60;82.44;98400.31;6169967;23;20165;-89
2020/12/15 11:01:58;;;;;;;4.22;3.80;;;;;;;11.42;83.11;98407.19;6170153;23;20184;-89
2020/12/15 11:04:26;;;;;;;6.13;4.30;;;;;;;11.49;82.97;98403.03;6167170;23;20214;-88
2020/12/15 11:06:52;;;;;;;4.43;3.47;;;;;;;11.52;82.97;98403.63;6192746;23;20668;-88
2020/12/15 11:09:18;;;;;;;4.63;3.65;;;;;;;11.50;83.19;98404.72;6168610;23;20208;-88
2020/12/15 11:11:49;;;;;;;5.68;4.20;;;;;;;11.43;84.15;98414.28;6191789;23;20262;-87
2020/12/15 11:14:15;;;;;;;4.80;3.88;;;;;;;11.40;85.07;98411.81;6170295;23;20219;-86
2020/12/15 11:17:01;;;;;;;8.55;6.32;;;;;;;11.40;84.65;98398.34;6202461;23;20188;-85
2020/12/15 11:19:27;;;;;;;6.45;4.22;;;;;;;11.40;84.83;98409.13;6192345;23;20215;-84
2020/12/15 11:21:54;;;;;;;5.55;4.35;;;;;;;11.34;86.08;98409.59;6167880;23;20299;-84
2020/12/15 11:24:20;;;;;;;4.50;4.07;;;;;;;11.44;85.26;98406.06;6168841;23;20231;-84
2020/12/15 11:26:48;;;;;;;6.75;4.20;;;;;;;11.38;86.11;98411.94;6166895;23;20211;-84
2020/12/15 11:29:15;;;;;;;5.50;4.68;;;;;;;11.38;86.61;98405.72;6165071;23;20192;-84
2020/12/15 11:31:41;;;;;;;6.45;4.40;;;;;;;11.40;86.69;98410.00;6168942;23;20165;-83
2020/12/15 11:34:07;;;;;;;5.78;4.32;;;;;;;11.46;86.24;98408.63;6189912;23;20209;-86
2020/12/15 11:36:34;;;;;;;4.22;3.83;;;;;;;11.47;85.23;98415.72;6108547;23;20205;-88
2020/12/15 11:39:06;;;;;;;5.03;4.30;;;;;;;11.49;84.29;98408.41;6166628;23;20215;-87
2020/12/15 11:41:35;;;;;;;5.07;4.57;;;;;;;11.48;85.81;98409.34;6190956;23;20295;-87
2020/12/15 11:44:02;;;;;;;4.88;4.20;;;;;;;11.61;84.64;98402.03;6187827;22;20209;-87
2020/12/15 11:46:32;;;;;;;4.65;4.25;;;;;;;11.58;84.45;98400.47;6049458;23;20188;-86
2020/12/15 11:49:07;;;;;;;5.63;4.53;;;;;;;11.67;84.32;98405.09;6168565;23;20228;-87
2020/12/15 11:51:37;;;;;;;5.15;3.97;;;;;;;11.72;84.10;98393.94;6159236;23;20226;-87
2020/12/15 11:54:31;;;;;;;3.90;3.50;;;;;;;11.70;83.46;98402.13;6176059;23;20237;-87
2020/12/15 11:57:15;;;;;;;4.65;4.10;;;;;;;11.52;84.49;98398.25;6122262;23;20170;-87
2020/12/15 11:59:43;;;;;;;5.43;4.53;;;;;;;11.57;84.37;98397.88;6119330;23;20212;-87
2020/12/15 12:02:11;;;;;;;4.30;3.90;;;;;;;11.49;83.96;98397.63;6112538;23;20587;-87
2020/12/15 12:04:39;;;;;;;5.20;4.30;;;;;;;11.47;84.08;98410.34;6043881;23;20206;-87
2020/12/15 12:07:07;;;;;;;5.90;4.43;;;;;;;11.45;84.17;98406.94;6131964;23;20202;-87
2020/12/15 12:09:35;;;;;;;5.15;4.43;;;;;;;11.39;84.50;98418.19;6103304;23;20205;-86
2020/12/15 12:12:07;;;;;;;23.77;17.40;;;;;;;11.47;83.84;98421.97;6106377;23;20238;-87
2020/12/15 12:14:51;;;;;;;5.55;5.05;;;;;;;11.42;84.72;98415.25;6083990;23;20216;-87
2020/12/15 12:17:39;;;;;;;4.43;3.85;;;;;;;11.53;84.08;98416.09;6119184;23;20158;-88
2020/12/15 12:20:30;;;;;;;6.35;4.38;;;;;;;11.55;84.06;98421.38;6120669;23;20193;-86
2020/12/15 12:23:25;;;;;;;6.28;5.03;;;;;;;11.41;84.46;98425.16;6128698;23;20197;-87
2020/12/15 12:25:51;;;;;;;7.32;4.50;;;;;;;11.57;83.70;98424.78;6109966;23;20249;-86
2020/12/15 12:28:47;;;;;;;5.47;4.97;;;;;;;11.59;84.29;98428.22;6127483;23;20291;-87
2020/12/15 12:31:19;;;;;;;4.28;3.97;;;;;;;11.73;83.77;98427.97;6113137;23;20821;-87
2020/12/15 12:33:50;;;;;;;8.65;5.38;;;;;;;11.70;83.81;98434.44;6107025;23;20214;-87
2020/12/15 12:36:54;;;;;;;7.25;4.82;;;;;;;11.76;83.26;98427.72;6127272;23;20206;-88
2020/12/15 12:39:50;;;;;;;5.63;5.07;;;;;;;11.78;83.18;98431.16;6092616;23;20198;-87
2020/12/15 12:42:25;;;;;;;5.65;4.70;;;;;;;11.77;83.25;98434.81;6038744;23;20234;-86
2020/12/15 12:44:54;;;;;;;4.68;4.28;;;;;;;11.71;83.11;98435.31;6000371;23;20374;-87
2020/12/15 12:47:43;;;;;;;8.27;5.03;;;;;;;11.68;83.28;98439.13;6097283;23;20213;-88
2020/12/15 12:50:37;;;;;;;7.97;4.97;;;;;;;11.81;83.14;98442.53;6075564;23;20150;-88
2020/12/15 12:53:06;;;;;;;6.75;5.78;;;;;;;11.73;83.29;98453.06;6097886;23;20174;-88
2020/12/15 12:55:47;;;;;;;6.68;6.10;;;;;;;11.80;82.88;98448.91;6134090;23;20214;-86
2020/12/15 12:59:17;;;;;;;7.90;5.50;;;;;;;11.67;83.69;98456.25;6057091;23;20211;-87
2020/12/15 13:01:59;;;;;;;6.47;5.60;;;;;;;11.66;84.26;98456.38;6054862;23;20215;-87
2020/12/15 13:04:55;;;;;;;8.02;5.80;;;;;;;11.84;83.29;98473.75;6139393;23;20285;-87
2020/12/15 13:08:23;;;;;;;5.78;4.85;;;;;;;11.62;83.18;98457.63;6073566;23;20206;-87
2020/12/15 13:11:15;;;;;;;5.70;5.00;;;;;;;11.74;83.02;98468.25;6151616;23;20250;-86
2020/12/15 13:13:41;;;;;;;7.40;6.40;;;;;;;11.64;83.02;98467.28;6155484;23;20245;-86
2020/12/15 13:16:07;;;;;;;6.82;5.53;;;;;;;11.62;83.44;98460.31;6115586;23;20205;-87
2020/12/15 13:18:36;;;;;;;7.47;6.13;;;;;;;11.68;84.06;98468.75;6111098;23;20210;-86
2020/12/15 13:21:07;;;;;;;8.57;6.82;;;;;;;11.53;84.62;98458.31;6110823;23;20210;-87
2020/12/15 13:23:33;;;;;;;7.68;6.70;;;;;;;11.68;83.66;98467.91;6108381;23;20599;-87
2020/12/15 13:26:02;;;;;;;8.57;7.10;;;;;;;11.69;84.60;98470.44;6109753;23;20166;-87
2020/12/15 13:28:28;;;;;;;7.88;6.53;;;;;;;11.72;84.00;98470.22;6106403;23;20213;-87
2020/12/15 13:30:56;;;;;;;8.93;6.15;;;;;;;11.65;84.52;98468.13;6108276;23;20221;-88
2020/12/15 13:33:26;;;;;;;6.40;5.80;;;;;;;11.79;84.10;98470.56;6118054;23;20240;-87
2020/12/15 13:39:16;;;;;;;6.93;6.22;;;;;;;11.74;85.33;98468.25;6101618;23;20206;-86
2020/12/15 13:41:44;;;;;;;7.20;6.22;;;;;;;11.74;85.36;98467.41;6109470;23;20216;-86
2020/12/15 13:44:10;;;;;;;11.18;6.85;;;;;;;11.68;86.45;98473.28;6135236;23;20197;-86
2020/12/15 13:46:42;;;;;;;7.95;6.97;;;;;;;11.77;84.84;98476.09;6107924;23;20212;-86